Nearby METAR Reports

 

KLBE - Latrobe/Westmorl, Pennsylvania, USA
Distance from station: SE 16mi, 26km
Updated: Sun, 24-Jul-2016 5:47pm EDT
Light thunderstorm, Rain, Mostly cloudy
Light thunderstorm, Rain, Mostly cloudy
 Wind from NW
Wind: NW 12 mph , 19 km/h, Gust: 23 mph , 37 km/h
Temperature: 77°F , 25°C
Dew Point: 72°F , 22°C
Humidity: 83%
Barometer: 30.05 inHg , 1017.6 hPa
Summary: Light thunderstorm, Rain
Clouds: Mostly cloudy
Visibility: 5 miles , 8 km
Cloud details: Partly cloudy 1400 ft
Mostly cloudy 4000 ft
2016/07/24 21:47 KLBE 242147Z 31010G20KT 5SM -TSRA SCT014 BKN040 25/22 A3005 RMK TS W MOVG NE
KAGC - Pittsburgh/Alleg, Pennsylvania, USA
Distance from station: WSW 18mi, 30km
Updated: Sun, 24-Jul-2016 6:08pm EDT
Light rain, Mist, Mostly cloudy
Light rain, Mist, Mostly cloudy
 Wind from calm
Wind: Calm
Temperature: 73°F , 23°C
Dew Point: 70°F , 21°C
Humidity: 89%
Barometer: 30.03 inHg , 1016.9 hPa
Summary: Light rain, Mist
Clouds: Mostly cloudy
Visibility: 5 miles , 8 km
Cloud details: Partly cloudy 4400 ft
Mostly cloudy 10000 ft
2016/07/24 22:08 KAGC 242208Z 00000KT 5SM -RA BR SCT044 BKN100 23/21 A3003 RMK AO2 P0001 T02280206
 
KBTP - Butler Co., Pennsylvania, USA
Distance from station: NW 29mi, 47km
Updated: Sun, 24-Jul-2016 6:15pm EDT
Few Clouds
Few Clouds
 Wind from calm
Wind: Calm
Temperature: 73°F , 23°C
Dew Point: 70°F , 21°C
Humidity: 89%
Barometer: 30.05 inHg , 1017.6 hPa
Clouds: Few Clouds
Visibility: 10 miles , 16 km
Cloud details: Few Clouds 4500 ft
Few Clouds 8000 ft
2016/07/24 22:15 KBTP 242215Z AUTO 00000KT 10SM FEW045 FEW080 23/21 A3005 RMK AO1
KIDI - Indiana/Stewart, Pennsylvania, USA
Distance from station: ENE 29mi, 47km
Updated: Sun, 24-Jul-2016 5:55pm EDT
Mist, Overcast
Mist, Overcast
 Wind from W
Wind: W 5 mph , 7 km/h, Gust: 12 mph , 19 km/h
Temperature: 72°F , 22°C
Dew Point: 72°F , 22°C
Humidity: 100%
Barometer: 30.09 inHg , 1019 hPa
Summary: Mist
Clouds: Overcast
Visibility: 4 miles , 6 km
Cloud details: Partly cloudy 400 ft
Mostly cloudy 4000 ft
Overcast 4800 ft
2016/07/24 21:55 KIDI 242155Z AUTO 26004G10KT 4SM BR SCT004 BKN040 OVC048 22/22 A3009 RMK A01
 
KPIT - Pittsburgh, Pennsylvania, USA
Distance from station: W 36mi, 57km
Updated: Sun, 24-Jul-2016 5:51pm EDT
Overcast
Overcast
 Wind from NE
Wind: NE 3 mph , 6 km/h
Temperature: 73°F , 23°C
Dew Point: 70°F , 21°C
Humidity: 89%
Barometer: 30.01 inHg , 1016.3 hPa
Clouds: Overcast
Visibility: 10 miles , 16 km
Cloud details: Few Clouds 3800 ft
Mostly cloudy 10000 ft
Overcast 16000 ft
2016/07/24 21:51 KPIT 242151Z 05003KT 10SM FEW038 BKN100 OVC160 23/21 A3001 RMK AO2 RAE35 TSE21 SLP163 P0004 T02280211
KJST - Johnstown, Pennsylvania, USA
Distance from station: ESE 41mi, 66km
Updated: Sun, 24-Jul-2016 6:12pm EDT
Thunderstorm rain, Mostly cloudy
Thunderstorm rain, Mostly cloudy
 Wind from NW
Wind: NW 22 mph , 35 km/h, Gust: 35 mph , 56 km/h
Temperature: 73°F , 23°C
Dew Point: 66°F , 19°C
Humidity: 78%
Barometer: 30.11 inHg , 1019.6 hPa
Summary: Thunderstorm Rain
Clouds: Mostly cloudy
Visibility: 8 miles , 13 km
Cloud details: Partly cloudy 1500 ft
Mostly cloudy 2200 ft
Mostly cloudy 4500 ft
2016/07/24 22:12 KJST 242212Z AUTO 31019G30KT 8SM TSRA SCT015 BKN022 BKN045 23/19 A3011 RMK AO2 PK WND 32030/2203 LTG DSNT W-NE RAB02 TSB10 P0002 T02280189
 
KAFJ - Washington, Pennsylvania, USA
Distance from station: WSW 42mi, 68km
Updated: Sun, 24-Jul-2016 6:15pm EDT
Nearby thunderstorm, Partly cloudy
Nearby thunderstorm, Partly cloudy
 Wind from calm
Wind: Calm
Temperature: 77°F , 25°C
Dew Point: 72°F , 22°C
Humidity: 83%
Barometer: 30.03 inHg , 1016.9 hPa
Summary: Nearby Thunderstorm
Clouds: Partly cloudy
Visibility: 10 miles , 16 km
Cloud details: Few Clouds 3900 ft
Few Clouds 4500 ft
Partly cloudy 6000 ft
2016/07/24 22:15 KAFJ 242215Z AUTO 00000KT 10SM VCTS FEW039 FEW045 SCT060 25/22 A3003 RMK AO1 LTG DSNT ALQDS P0001
KBVI - Beaver Falls Arp, Pennsylvania, USA
Distance from station: WNW 48mi, 77km
Updated: Sat, 23-Jul-2016 4:47pm EDT
NOT Current
Partly cloudy
Partly cloudy
 Wind from N
Wind: N 6 mph , 9 km/h
Temperature: 91°F , 33°C
Dew Point: 63°F , 17°C
Humidity: 38%
Barometer: 29.97 inHg , 1014.9 hPa
Clouds: Partly cloudy
Visibility: 10 miles , 16 km
Cloud details: Partly cloudy 6500 ft
2016/07/23 20:47 KBVI 232047Z 01005KT 10SM SCT065 33/17 A2997 RMK LAST